Palm City, Florida
Current Conditions -  °F | °C
As of 7:47 AM on Friday 31 Oct 2014 (Local Time) from KSUA Reporting Station
Scattered Clouds Scattered Clouds  
Wind Chill: 68°   Ceiling: Unl
Heat Index: 68°   Visibility: 10mi
Dew Point: 66°   Wind: 5mph
Humidity: 94%   Direction: 270°W
Pressure: 29.83"   Gusts: NA
Location:  27.16°N, 80.27°W
Report Text: KSUA 311147Z 27004KT 10SM SCT060 20/19 A2983
Loading
Personal Weather Stations






























Interactive Weather Map New forecast layout! Learn more

10-Day Weather Forecast

Advertisements
Track Severe Weather on mobile